sensor_id;sensor_type;location;lat;lon;timestamp;temperature;humidity
8888;DHT22;4480;52.370;9.748;2023-04-29T00:01:06;12.60;99.90
8888;DHT22;4480;52.370;9.748;2023-04-29T00:03:33;12.60;99.90
8888;DHT22;4480;52.370;9.748;2023-04-29T00:06:00;12.60;99.90
8888;DHT22;4480;52.370;9.748;2023-04-29T00:08:27;12.60;99.90
8888;DHT22;4480;52.370;9.748;2023-04-29T00:10:54;12.50;99.90
8888;DHT22;4480;52.370;9.748;2023-04-29T00:13:22;12.50;99.90
8888;DHT22;4480;52.370;9.748;2023-04-29T00:15:49;12.40;99.90
8888;DHT22;4480;52.370;9.748;2023-04-29T00:18:15;12.40;99.90
8888;DHT22;4480;52.370;9.748;2023-04-29T00:20:42;12.40;99.90
8888;DHT22;4480;52.370;9.748;2023-04-29T00:23:09;12.40;99.90
8888;DHT22;4480;52.370;9.748;2023-04-29T00:25:36;12.40;99.90
8888;DHT22;4480;52.370;9.748;2023-04-29T00:28:03;12.30;99.90
8888;DHT22;4480;52.370;9.748;2023-04-29T00:30:31;12.30;99.90
8888;DHT22;4480;52.370;9.748;2023-04-29T00:32:59;12.30;99.90
8888;DHT22;4480;52.370;9.748;2023-04-29T00:35:25;12.30;99.90
8888;DHT22;4480;52.370;9.748;2023-04-29T00:37:52;12.20;99.90
8888;DHT22;4480;52.370;9.748;2023-04-29T00:40:19;12.20;99.90
8888;DHT22;4480;52.370;9.748;2023-04-29T00:42:46;12.20;99.90
8888;DHT22;4480;52.370;9.748;2023-04-29T00:45:13;12.20;99.90
8888;DHT22;4480;52.370;9.748;2023-04-29T00:47:41;12.20;99.90
8888;DHT22;4480;52.370;9.748;2023-04-29T00:50:08;12.20;99.90
8888;DHT22;4480;52.370;9.748;2023-04-29T00:52:36;12.20;99.90
8888;DHT22;4480;52.370;9.748;2023-04-29T00:55:04;12.10;99.90
8888;DHT22;4480;52.370;9.748;2023-04-29T00:57:32;12.10;99.90
8888;DHT22;4480;52.370;9.748;2023-04-29T00:59:59;12.10;99.90
8888;DHT22;4480;52.370;9.748;2023-04-29T01:02:26;12.10;99.90
8888;DHT22;4480;52.370;9.748;2023-04-29T01:04:55;12.10;99.90
8888;DHT22;4480;52.370;9.748;2023-04-29T01:07:28;12.10;99.90
8888;DHT22;4480;52.370;9.748;2023-04-29T01:10:02;12.00;99.90
8888;DHT22;4480;52.370;9.748;2023-04-29T01:12:33;11.90;99.90
8888;DHT22;4480;52.370;9.748;2023-04-29T01:15:09;11.90;99.90
8888;DHT22;4480;52.370;9.748;2023-04-29T01:17:40;11.80;99.90
8888;DHT22;4480;52.370;9.748;2023-04-29T01:20:10;11.70;99.90
8888;DHT22;4480;52.370;9.748;2023-04-29T01:22:37;11.70;99.90
8888;DHT22;4480;52.370;9.748;2023-04-29T01:25:06;11.60;99.90
8888;DHT22;4480;52.370;9.748;2023-04-29T01:27:38;11.60;99.90
8888;DHT22;4480;52.370;9.748;2023-04-29T01:30:11;11.60;99.90
8888;DHT22;4480;52.370;9.748;2023-04-29T01:32:55;11.50;99.90
8888;DHT22;4480;52.370;9.748;2023-04-29T01:35:43;11.50;99.90
8888;DHT22;4480;52.370;9.748;2023-04-29T01:38:21;11.50;99.90
8888;DHT22;4480;52.370;9.748;2023-04-29T01:40:58;11.50;99.90
8888;DHT22;4480;52.370;9.748;2023-04-29T01:43:29;11.40;99.90
8888;DHT22;4480;52.370;9.748;2023-04-29T01:45:56;11.40;99.90
8888;DHT22;4480;52.370;9.748;2023-04-29T01:48:23;11.30;99.90
8888;DHT22;4480;52.370;9.748;2023-04-29T01:50:50;11.30;99.90
8888;DHT22;4480;52.370;9.748;2023-04-29T01:53:17;11.30;99.90
8888;DHT22;4480;52.370;9.748;2023-04-29T01:55:44;11.30;99.90
8888;DHT22;4480;52.370;9.748;2023-04-29T01:58:12;11.30;99.90
8888;DHT22;4480;52.370;9.748;2023-04-29T02:00:39;11.20;99.90
8888;DHT22;4480;52.370;9.748;2023-04-29T02:03:07;11.30;99.90
8888;DHT22;4480;52.370;9.748;2023-04-29T02:05:34;11.20;99.90
8888;DHT22;4480;52.370;9.748;2023-04-29T02:08:01;11.20;99.90
8888;DHT22;4480;52.370;9.748;2023-04-29T02:10:28;11.20;99.90
8888;DHT22;4480;52.370;9.748;2023-04-29T02:12:55;11.20;99.90
8888;DHT22;4480;52.370;9.748;2023-04-29T02:15:25;11.20;99.90
8888;DHT22;4480;52.370;9.748;2023-04-29T02:17:52;11.20;99.90
8888;DHT22;4480;52.370;9.748;2023-04-29T02:20:19;11.10;99.90
8888;DHT22;4480;52.370;9.748;2023-04-29T02:22:45;11.10;99.90
8888;DHT22;4480;52.370;9.748;2023-04-29T02:25:12;11.10;99.90
8888;DHT22;4480;52.370;9.748;2023-04-29T02:27:39;11.00;99.90
8888;DHT22;4480;52.370;9.748;2023-04-29T02:30:06;11.00;99.90
8888;DHT22;4480;52.370;9.748;2023-04-29T02:32:35;11.00;99.90
8888;DHT22;4480;52.370;9.748;2023-04-29T02:35:04;11.00;99.90
8888;DHT22;4480;52.370;9.748;2023-04-29T02:37:31;11.00;99.90
8888;DHT22;4480;52.370;9.748;2023-04-29T02:39:58;10.90;99.90
8888;DHT22;4480;52.370;9.748;2023-04-29T02:42:24;10.90;99.90
8888;DHT22;4480;52.370;9.748;2023-04-29T02:44:51;10.80;99.90
8888;DHT22;4480;52.370;9.748;2023-04-29T02:47:18;10.80;99.90
8888;DHT22;4480;52.370;9.748;2023-04-29T02:49:46;10.70;99.90
8888;DHT22;4480;52.370;9.748;2023-04-29T02:52:12;10.60;99.90
8888;DHT22;4480;52.370;9.748;2023-04-29T02:54:41;10.60;99.90
8888;DHT22;4480;52.370;9.748;2023-04-29T02:57:08;10.60;99.90
8888;DHT22;4480;52.370;9.748;2023-04-29T02:59:35;10.60;99.90
8888;DHT22;4480;52.370;9.748;2023-04-29T03:02:02;10.50;99.90
8888;DHT22;4480;52.370;9.748;2023-04-29T03:04:28;10.50;99.90
8888;DHT22;4480;52.370;9.748;2023-04-29T03:06:57;10.50;99.90
8888;DHT22;4480;52.370;9.748;2023-04-29T03:09:23;10.40;99.90
8888;DHT22;4480;52.370;9.748;2023-04-29T03:11:50;10.40;99.90
8888;DHT22;4480;52.370;9.748;2023-04-29T03:14:17;10.40;99.90
8888;DHT22;4480;52.370;9.748;2023-04-29T03:16:44;10.40;99.90
8888;DHT22;4480;52.370;9.748;2023-04-29T03:19:11;10.30;99.90
8888;DHT22;4480;52.370;9.748;2023-04-29T03:21:37;10.30;99.90
8888;DHT22;4480;52.370;9.748;2023-04-29T03:24:06;10.30;99.90
8888;DHT22;4480;52.370;9.748;2023-04-29T03:26:32;10.30;99.90
8888;DHT22;4480;52.370;9.748;2023-04-29T03:28:59;10.20;99.90
8888;DHT22;4480;52.370;9.748;2023-04-29T03:31:26;10.20;99.90
8888;DHT22;4480;52.370;9.748;2023-04-29T03:33:53;10.20;99.90
8888;DHT22;4480;52.370;9.748;2023-04-29T03:36:20;10.20;99.90
8888;DHT22;4480;52.370;9.748;2023-04-29T03:38:46;10.20;99.90
8888;DHT22;4480;52.370;9.748;2023-04-29T03:41:14;10.10;99.90
8888;DHT22;4480;52.370;9.748;2023-04-29T03:43:41;10.10;99.90
8888;DHT22;4480;52.370;9.748;2023-04-29T03:46:09;10.00;99.90
8888;DHT22;4480;52.370;9.748;2023-04-29T03:48:36;10.00;99.90
8888;DHT22;4480;52.370;9.748;2023-04-29T03:51:03;10.00;99.90
8888;DHT22;4480;52.370;9.748;2023-04-29T03:53:30;10.00;99.90
8888;DHT22;4480;52.370;9.748;2023-04-29T03:55:57;9.90;99.90
8888;DHT22;4480;52.370;9.748;2023-04-29T03:58:25;10.00;99.90
8888;DHT22;4480;52.370;9.748;2023-04-29T04:00:52;9.90;99.90
8888;DHT22;4480;52.370;9.748;2023-04-29T04:03:19;9.90;99.90
8888;DHT22;4480;52.370;9.748;2023-04-29T04:05:47;9.90;99.90
8888;DHT22;4480;52.370;9.748;2023-04-29T04:11:35;9.90;99.90
8888;DHT22;4480;52.370;9.748;2023-04-29T04:14:01;9.90;99.90
8888;DHT22;4480;52.370;9.748;2023-04-29T04:16:30;9.80;99.90
8888;DHT22;4480;52.370;9.748;2023-04-29T04:18:56;9.80;99.90
8888;DHT22;4480;52.370;9.748;2023-04-29T04:21:23;9.80;99.90
8888;DHT22;4480;52.370;9.748;2023-04-29T04:23:51;9.80;99.90
8888;DHT22;4480;52.370;9.748;2023-04-29T04:26:18;9.80;99.90
8888;DHT22;4480;52.370;9.748;2023-04-29T04:28:47;9.80;99.90
8888;DHT22;4480;52.370;9.748;2023-04-29T04:31:14;9.80;99.90
8888;DHT22;4480;52.370;9.748;2023-04-29T04:33:41;9.80;99.90
8888;DHT22;4480;52.370;9.748;2023-04-29T04:36:07;9.80;99.90
8888;DHT22;4480;52.370;9.748;2023-04-29T04:38:34;9.80;99.90
8888;DHT22;4480;52.370;9.748;2023-04-29T04:41:01;9.80;99.90
8888;DHT22;4480;52.370;9.748;2023-04-29T04:43:28;9.80;99.90
8888;DHT22;4480;52.370;9.748;2023-04-29T04:45:58;9.80;99.90
8888;DHT22;4480;52.370;9.748;2023-04-29T04:48:25;9.70;99.90
8888;DHT22;4480;52.370;9.748;2023-04-29T04:50:52;9.70;99.90
8888;DHT22;4480;52.370;9.748;2023-04-29T04:53:18;9.70;99.90
8888;DHT22;4480;52.370;9.748;2023-04-29T04:55:46;9.70;99.90
8888;DHT22;4480;52.370;9.748;2023-04-29T04:58:14;9.70;99.90
8888;DHT22;4480;52.370;9.748;2023-04-29T05:00:43;9.70;99.90
8888;DHT22;4480;52.370;9.748;2023-04-29T05:03:11;9.60;99.90
8888;DHT22;4480;52.370;9.748;2023-04-29T05:05:38;9.60;99.90
8888;DHT22;4480;52.370;9.748;2023-04-29T05:08:04;9.60;99.90
8888;DHT22;4480;52.370;9.748;2023-04-29T05:10:34;9.60;99.90
8888;DHT22;4480;52.370;9.748;2023-04-29T05:13:01;9.50;99.90
8888;DHT22;4480;52.370;9.748;2023-04-29T05:15:28;9.50;99.90
8888;DHT22;4480;52.370;9.748;2023-04-29T05:17:55;9.50;99.90
8888;DHT22;4480;52.370;9.748;2023-04-29T05:20:23;9.50;99.90
8888;DHT22;4480;52.370;9.748;2023-04-29T05:22:50;9.50;99.90
8888;DHT22;4480;52.370;9.748;2023-04-29T05:25:17;9.50;99.90
8888;DHT22;4480;52.370;9.748;2023-04-29T05:27:44;9.50;99.90
8888;DHT22;4480;52.370;9.748;2023-04-29T05:30:11;9.40;99.90
8888;DHT22;4480;52.370;9.748;2023-04-29T05:32:38;9.40;99.90
8888;DHT22;4480;52.370;9.748;2023-04-29T05:35:06;9.40;99.90
8888;DHT22;4480;52.370;9.748;2023-04-29T05:37:34;9.40;99.90
8888;DHT22;4480;52.370;9.748;2023-04-29T05:40:01;9.50;99.90
8888;DHT22;4480;52.370;9.748;2023-04-29T05:42:27;9.50;99.90
8888;DHT22;4480;52.370;9.748;2023-04-29T05:44:55;9.50;99.90
8888;DHT22;4480;52.370;9.748;2023-04-29T05:47:21;9.50;99.90
8888;DHT22;4480;52.370;9.748;2023-04-29T05:49:48;9.50;99.90
8888;DHT22;4480;52.370;9.748;2023-04-29T05:52:15;9.50;99.90
8888;DHT22;4480;52.370;9.748;2023-04-29T05:54:43;9.50;99.90
8888;DHT22;4480;52.370;9.748;2023-04-29T05:57:10;9.50;99.90
8888;DHT22;4480;52.370;9.748;2023-04-29T05:59:36;9.50;99.90
8888;DHT22;4480;52.370;9.748;2023-04-29T06:02:03;9.40;99.90
8888;DHT22;4480;52.370;9.748;2023-04-29T06:04:30;9.40;99.90
8888;DHT22;4480;52.370;9.748;2023-04-29T06:06:57;9.40;99.90
8888;DHT22;4480;52.370;9.748;2023-04-29T06:09:24;9.40;99.90
8888;DHT22;4480;52.370;9.748;2023-04-29T06:11:52;9.40;99.90
8888;DHT22;4480;52.370;9.748;2023-04-29T06:14:19;9.40;99.90
8888;DHT22;4480;52.370;9.748;2023-04-29T06:16:46;9.40;99.90
8888;DHT22;4480;52.370;9.748;2023-04-29T06:19:13;9.50;99.90
8888;DHT22;4480;52.370;9.748;2023-04-29T06:21:40;9.50;99.90
8888;DHT22;4480;52.370;9.748;2023-04-29T06:24:07;9.50;99.90
8888;DHT22;4480;52.370;9.748;2023-04-29T06:26:33;9.60;99.90
8888;DHT22;4480;52.370;9.748;2023-04-29T06:29:02;9.60;99.90
8888;DHT22;4480;52.370;9.748;2023-04-29T06:31:29;9.70;99.90
8888;DHT22;4480;52.370;9.748;2023-04-29T06:33:56;9.70;99.90
8888;DHT22;4480;52.370;9.748;2023-04-29T06:36:25;9.70;99.90
8888;DHT22;4480;52.370;9.748;2023-04-29T06:38:52;9.80;99.90
8888;DHT22;4480;52.370;9.748;2023-04-29T06:41:19;9.80;99.90
8888;DHT22;4480;52.370;9.748;2023-04-29T06:43:46;9.80;99.90
8888;DHT22;4480;52.370;9.748;2023-04-29T06:46:14;9.80;99.90
8888;DHT22;4480;52.370;9.748;2023-04-29T06:48:41;9.80;99.90
8888;DHT22;4480;52.370;9.748;2023-04-29T06:51:08;9.80;99.90
8888;DHT22;4480;52.370;9.748;2023-04-29T06:53:34;9.80;99.90
8888;DHT22;4480;52.370;9.748;2023-04-29T06:56:01;9.80;99.90
8888;DHT22;4480;52.370;9.748;2023-04-29T06:58:28;9.80;99.90
8888;DHT22;4480;52.370;9.748;2023-04-29T07:00:55;9.90;99.90
8888;DHT22;4480;52.370;9.748;2023-04-29T07:03:23;9.90;99.90
8888;DHT22;4480;52.370;9.748;2023-04-29T07:05:49;10.10;99.90
8888;DHT22;4480;52.370;9.748;2023-04-29T07:08:16;10.20;99.90
8888;DHT22;4480;52.370;9.748;2023-04-29T07:10:43;10.20;99.90
8888;DHT22;4480;52.370;9.748;2023-04-29T07:13:10;10.40;99.90
8888;DHT22;4480;52.370;9.748;2023-04-29T07:15:37;10.50;99.90
8888;DHT22;4480;52.370;9.748;2023-04-29T07:18:04;10.50;99.90
8888;DHT22;4480;52.370;9.748;2023-04-29T07:20:34;10.70;99.90
8888;DHT22;4480;52.370;9.748;2023-04-29T07:23:01;10.80;99.90
8888;DHT22;4480;52.370;9.748;2023-04-29T07:25:28;10.80;99.90
8888;DHT22;4480;52.370;9.748;2023-04-29T07:27:55;10.90;99.90
8888;DHT22;4480;52.370;9.748;2023-04-29T07:30:22;11.00;99.90
8888;DHT22;4480;52.370;9.748;2023-04-29T07:32:49;11.10;99.90
8888;DHT22;4480;52.370;9.748;2023-04-29T07:35:16;11.20;99.90
8888;DHT22;4480;52.370;9.748;2023-04-29T07:37:44;11.30;99.90
8888;DHT22;4480;52.370;9.748;2023-04-29T07:40:12;11.50;99.90
8888;DHT22;4480;52.370;9.748;2023-04-29T07:42:39;11.50;99.90
8888;DHT22;4480;52.370;9.748;2023-04-29T07:45:06;11.60;99.90
8888;DHT22;4480;52.370;9.748;2023-04-29T07:47:34;11.60;99.90
8888;DHT22;4480;52.370;9.748;2023-04-29T07:50:01;11.70;99.90
8888;DHT22;4480;52.370;9.748;2023-04-29T07:52:28;11.70;99.90
8888;DHT22;4480;52.370;9.748;2023-04-29T07:54:56;11.80;99.90
8888;DHT22;4480;52.370;9.748;2023-04-29T07:57:22;12.00;99.90
8888;DHT22;4480;52.370;9.748;2023-04-29T07:59:51;12.10;99.90
8888;DHT22;4480;52.370;9.748;2023-04-29T08:02:18;12.10;99.90
8888;DHT22;4480;52.370;9.748;2023-04-29T08:04:45;12.10;99.90
8888;DHT22;4480;52.370;9.748;2023-04-29T08:07:12;12.10;99.90
8888;DHT22;4480;52.370;9.748;2023-04-29T08:09:38;12.10;99.90
8888;DHT22;4480;52.370;9.748;2023-04-29T08:12:07;12.10;99.90
8888;DHT22;4480;52.370;9.748;2023-04-29T08:14:34;12.20;99.90
8888;DHT22;4480;52.370;9.748;2023-04-29T08:17:00;12.10;99.90
8888;DHT22;4480;52.370;9.748;2023-04-29T08:19:27;12.20;99.90
8888;DHT22;4480;52.370;9.748;2023-04-29T08:21:54;12.30;99.90
8888;DHT22;4480;52.370;9.748;2023-04-29T08:24:21;12.50;99.90
8888;DHT22;4480;52.370;9.748;2023-04-29T08:26:47;12.70;99.90
8888;DHT22;4480;52.370;9.748;2023-04-29T08:29:16;12.90;99.90
8888;DHT22;4480;52.370;9.748;2023-04-29T08:31:42;13.10;99.90
8888;DHT22;4480;52.370;9.748;2023-04-29T08:34:09;13.20;99.90
8888;DHT22;4480;52.370;9.748;2023-04-29T08:36:36;13.40;99.90
8888;DHT22;4480;52.370;9.748;2023-04-29T08:39:03;13.50;99.90
8888;DHT22;4480;52.370;9.748;2023-04-29T08:41:30;13.60;99.90
8888;DHT22;4480;52.370;9.748;2023-04-29T08:43:58;13.70;99.90
8888;DHT22;4480;52.370;9.748;2023-04-29T08:46:26;13.70;99.90
8888;DHT22;4480;52.370;9.748;2023-04-29T08:48:54;13.60;99.90
8888;DHT22;4480;52.370;9.748;2023-04-29T08:51:22;13.60;99.90
8888;DHT22;4480;52.370;9.748;2023-04-29T08:53:49;13.60;99.90
8888;DHT22;4480;52.370;9.748;2023-04-29T08:56:16;13.70;99.90
8888;DHT22;4480;52.370;9.748;2023-04-29T08:58:45;13.70;99.90
8888;DHT22;4480;52.370;9.748;2023-04-29T09:01:12;13.70;99.90
8888;DHT22;4480;52.370;9.748;2023-04-29T09:03:46;13.80;99.90
8888;DHT22;4480;52.370;9.748;2023-04-29T09:06:15;14.00;99.90
8888;DHT22;4480;52.370;9.748;2023-04-29T09:08:43;14.20;99.90
8888;DHT22;4480;52.370;9.748;2023-04-29T09:11:10;14.20;99.20
8888;DHT22;4480;52.370;9.748;2023-04-29T09:13:37;14.30;98.70
8888;DHT22;4480;52.370;9.748;2023-04-29T09:16:07;14.40;97.80
8888;DHT22;4480;52.370;9.748;2023-04-29T09:18:44;14.60;96.60
8888;DHT22;4480;52.370;9.748;2023-04-29T09:21:12;14.60;95.30
8888;DHT22;4480;52.370;9.748;2023-04-29T09:23:40;14.50;94.10
8888;DHT22;4480;52.370;9.748;2023-04-29T09:26:07;14.40;94.00
8888;DHT22;4480;52.370;9.748;2023-04-29T09:28:34;14.20;94.40
8888;DHT22;4480;52.370;9.748;2023-04-29T09:31:01;14.00;95.10
8888;DHT22;4480;52.370;9.748;2023-04-29T09:33:30;13.90;95.70
8888;DHT22;4480;52.370;9.748;2023-04-29T09:35:59;13.90;95.90
8888;DHT22;4480;52.370;9.748;2023-04-29T09:38:25;13.90;95.80
8888;DHT22;4480;52.370;9.748;2023-04-29T09:40:52;13.70;95.60
8888;DHT22;4480;52.370;9.748;2023-04-29T09:43:20;13.60;96.60
8888;DHT22;4480;52.370;9.748;2023-04-29T09:45:48;13.40;97.50
8888;DHT22;4480;52.370;9.748;2023-04-29T09:48:16;13.30;98.20
8888;DHT22;4480;52.370;9.748;2023-04-29T09:50:43;13.20;98.60
8888;DHT22;4480;52.370;9.748;2023-04-29T09:53:27;13.00;99.40
8888;DHT22;4480;52.370;9.748;2023-04-29T09:55:58;13.00;99.90
8888;DHT22;4480;52.370;9.748;2023-04-29T09:58:29;13.00;99.90
8888;DHT22;4480;52.370;9.748;2023-04-29T10:01:02;13.10;99.90
8888;DHT22;4480;52.370;9.748;2023-04-29T10:03:32;13.40;99.90
8888;DHT22;4480;52.370;9.748;2023-04-29T10:06:00;13.60;99.50
8888;DHT22;4480;52.370;9.748;2023-04-29T10:08:29;13.70;97.50
8888;DHT22;4480;52.370;9.748;2023-04-29T10:10:59;13.70;96.50
8888;DHT22;4480;52.370;9.748;2023-04-29T10:13:27;13.70;95.70
8888;DHT22;4480;52.370;9.748;2023-04-29T10:16:00;13.80;95.00
8888;DHT22;4480;52.370;9.748;2023-04-29T10:18:34;13.90;94.10
8888;DHT22;4480;52.370;9.748;2023-04-29T10:21:02;13.90;93.90
8888;DHT22;4480;52.370;9.748;2023-04-29T10:23:32;13.90;93.10
8888;DHT22;4480;52.370;9.748;2023-04-29T10:26:00;13.80;93.00
8888;DHT22;4480;52.370;9.748;2023-04-29T10:28:30;13.70;92.80
8888;DHT22;4480;52.370;9.748;2023-04-29T10:30:59;13.70;93.80
8888;DHT22;4480;52.370;9.748;2023-04-29T10:33:30;14.00;94.00
8888;DHT22;4480;52.370;9.748;2023-04-29T10:35:58;14.50;91.90
8888;DHT22;4480;52.370;9.748;2023-04-29T10:38:29;14.90;89.30
8888;DHT22;4480;52.370;9.748;2023-04-29T10:40:59;15.20;85.40
8888;DHT22;4480;52.370;9.748;2023-04-29T10:43:28;15.30;81.40
8888;DHT22;4480;52.370;9.748;2023-04-29T10:46:20;15.30;79.80
8888;DHT22;4480;52.370;9.748;2023-04-29T10:48:49;15.30;79.10
8888;DHT22;4480;52.370;9.748;2023-04-29T10:51:39;15.30;77.90
8888;DHT22;4480;52.370;9.748;2023-04-29T10:54:08;15.20;77.30
8888;DHT22;4480;52.370;9.748;2023-04-29T10:56:46;15.20;77.50
8888;DHT22;4480;52.370;9.748;2023-04-29T10:59:15;15.10;76.30
8888;DHT22;4480;52.370;9.748;2023-04-29T11:01:46;15.00;74.90
8888;DHT22;4480;52.370;9.748;2023-04-29T11:04:14;15.00;75.00
8888;DHT22;4480;52.370;9.748;2023-04-29T11:06:44;15.10;74.50
8888;DHT22;4480;52.370;9.748;2023-04-29T11:09:13;15.20;73.80
8888;DHT22;4480;52.370;9.748;2023-04-29T11:11:46;15.30;73.40
8888;DHT22;4480;52.370;9.748;2023-04-29T11:14:15;15.30;72.90
8888;DHT22;4480;52.370;9.748;2023-04-29T11:16:47;15.40;71.00
8888;DHT22;4480;52.370;9.748;2023-04-29T11:19:15;15.50;70.00
8888;DHT22;4480;52.370;9.748;2023-04-29T11:21:45;15.60;69.40
8888;DHT22;4480;52.370;9.748;2023-04-29T11:24:12;15.70;68.50
8888;DHT22;4480;52.370;9.748;2023-04-29T11:26:41;15.70;66.50
8888;DHT22;4480;52.370;9.748;2023-04-29T11:29:11;15.40;65.10
8888;DHT22;4480;52.370;9.748;2023-04-29T11:31:38;15.30;65.90
8888;DHT22;4480;52.370;9.748;2023-04-29T11:34:05;15.40;65.80
8888;DHT22;4480;52.370;9.748;2023-04-29T11:36:33;15.50;65.00
8888;DHT22;4480;52.370;9.748;2023-04-29T11:39:01;15.70;63.20
8888;DHT22;4480;52.370;9.748;2023-04-29T11:41:28;15.70;63.20
8888;DHT22;4480;52.370;9.748;2023-04-29T11:43:56;15.80;63.20
8888;DHT22;4480;52.370;9.748;2023-04-29T11:46:25;15.80;62.40
8888;DHT22;4480;52.370;9.748;2023-04-29T11:48:53;15.70;62.30
8888;DHT22;4480;52.370;9.748;2023-04-29T11:51:20;15.60;62.40
8888;DHT22;4480;52.370;9.748;2023-04-29T11:53:47;15.60;63.20
8888;DHT22;4480;52.370;9.748;2023-04-29T11:56:14;15.70;63.20
8888;DHT22;4480;52.370;9.748;2023-04-29T11:58:41;15.80;62.80
8888;DHT22;4480;52.370;9.748;2023-04-29T12:01:09;15.80;62.00
8888;DHT22;4480;52.370;9.748;2023-04-29T12:03:37;16.10;62.20
8888;DHT22;4480;52.370;9.748;2023-04-29T12:06:05;16.60;60.20
8888;DHT22;4480;52.370;9.748;2023-04-29T12:08:32;16.70;59.20
8888;DHT22;4480;52.370;9.748;2023-04-29T12:10:59;16.40;59.30
8888;DHT22;4480;52.370;9.748;2023-04-29T12:13:28;16.00;59.70
8888;DHT22;4480;52.370;9.748;2023-04-29T12:15:56;15.80;60.70
8888;DHT22;4480;52.370;9.748;2023-04-29T12:18:24;15.70;61.00
8888;DHT22;4480;52.370;9.748;2023-04-29T12:20:54;15.80;61.30
8888;DHT22;4480;52.370;9.748;2023-04-29T12:23:22;15.80;61.60
8888;DHT22;4480;52.370;9.748;2023-04-29T12:25:52;15.90;60.80
8888;DHT22;4480;52.370;9.748;2023-04-29T12:28:19;15.90;60.20
8888;DHT22;4480;52.370;9.748;2023-04-29T12:30:47;15.80;60.00
8888;DHT22;4480;52.370;9.748;2023-04-29T12:33:18;15.80;60.20
8888;DHT22;4480;52.370;9.748;2023-04-29T12:35:47;15.70;59.80
8888;DHT22;4480;52.370;9.748;2023-04-29T12:38:19;15.70;59.90
8888;DHT22;4480;52.370;9.748;2023-04-29T12:40:46;15.70;59.60
8888;DHT22;4480;52.370;9.748;2023-04-29T12:43:13;15.70;60.20
8888;DHT22;4480;52.370;9.748;2023-04-29T12:45:40;15.80;59.50
8888;DHT22;4480;52.370;9.748;2023-04-29T12:48:07;15.80;59.10
8888;DHT22;4480;52.370;9.748;2023-04-29T12:50:35;15.90;58.70
8888;DHT22;4480;52.370;9.748;2023-04-29T12:53:02;15.90;58.40
8888;DHT22;4480;52.370;9.748;2023-04-29T12:55:32;15.70;58.50
8888;DHT22;4480;52.370;9.748;2023-04-29T12:57:59;15.60;59.00
8888;DHT22;4480;52.370;9.748;2023-04-29T13:00:26;15.50;59.40
8888;DHT22;4480;52.370;9.748;2023-04-29T13:02:53;15.40;59.60
8888;DHT22;4480;52.370;9.748;2023-04-29T13:05:20;15.40;59.70
8888;DHT22;4480;52.370;9.748;2023-04-29T13:07:48;15.30;59.80
8888;DHT22;4480;52.370;9.748;2023-04-29T13:10:14;15.30;60.10
8888;DHT22;4480;52.370;9.748;2023-04-29T13:12:43;15.20;60.10
8888;DHT22;4480;52.370;9.748;2023-04-29T13:15:10;15.20;60.40
8888;DHT22;4480;52.370;9.748;2023-04-29T13:17:38;15.00;60.70
8888;DHT22;4480;52.370;9.748;2023-04-29T13:20:07;15.00;61.30
8888;DHT22;4480;52.370;9.748;2023-04-29T13:22:34;15.00;61.70
8888;DHT22;4480;52.370;9.748;2023-04-29T13:25:01;15.00;61.80
8888;DHT22;4480;52.370;9.748;2023-04-29T13:27:29;15.00;61.80
8888;DHT22;4480;52.370;9.748;2023-04-29T13:29:57;15.10;61.20
8888;DHT22;4480;52.370;9.748;2023-04-29T13:32:24;15.10;61.10
8888;DHT22;4480;52.370;9.748;2023-04-29T13:34:52;15.20;59.70
8888;DHT22;4480;52.370;9.748;2023-04-29T13:37:19;15.30;59.40
8888;DHT22;4480;52.370;9.748;2023-04-29T13:39:46;15.40;59.40
8888;DHT22;4480;52.370;9.748;2023-04-29T13:42:12;15.40;59.40
8888;DHT22;4480;52.370;9.748;2023-04-29T13:44:39;15.50;59.20
8888;DHT22;4480;52.370;9.748;2023-04-29T13:47:10;15.50;59.10
8888;DHT22;4480;52.370;9.748;2023-04-29T13:49:38;15.40;59.10
8888;DHT22;4480;52.370;9.748;2023-04-29T13:52:06;15.40;59.10
8888;DHT22;4480;52.370;9.748;2023-04-29T13:54:32;15.30;59.30
8888;DHT22;4480;52.370;9.748;2023-04-29T13:56:59;15.30;59.60
8888;DHT22;4480;52.370;9.748;2023-04-29T13:59:28;15.30;59.70
8888;DHT22;4480;52.370;9.748;2023-04-29T14:01:55;15.30;59.80
8888;DHT22;4480;52.370;9.748;2023-04-29T14:04:23;15.30;59.80
8888;DHT22;4480;52.370;9.748;2023-04-29T14:06:50;15.20;59.90
8888;DHT22;4480;52.370;9.748;2023-04-29T14:09:17;15.20;60.40
8888;DHT22;4480;52.370;9.748;2023-04-29T14:11:44;15.00;60.90
8888;DHT22;4480;52.370;9.748;2023-04-29T14:14:11;14.90;61.70
8888;DHT22;4480;52.370;9.748;2023-04-29T14:16:38;14.80;62.40
8888;DHT22;4480;52.370;9.748;2023-04-29T14:19:05;14.80;62.80
8888;DHT22;4480;52.370;9.748;2023-04-29T14:21:34;14.90;62.90
8888;DHT22;4480;52.370;9.748;2023-04-29T14:24:02;15.00;63.10
8888;DHT22;4480;52.370;9.748;2023-04-29T14:26:29;15.00;62.80
8888;DHT22;4480;52.370;9.748;2023-04-29T14:28:56;15.00;63.70
8888;DHT22;4480;52.370;9.748;2023-04-29T14:31:24;15.00;63.20
8888;DHT22;4480;52.370;9.748;2023-04-29T14:33:52;15.10;63.10
8888;DHT22;4480;52.370;9.748;2023-04-29T14:36:19;15.20;62.90
8888;DHT22;4480;52.370;9.748;2023-04-29T14:38:47;15.20;62.70
8888;DHT22;4480;52.370;9.748;2023-04-29T14:41:14;15.30;62.50
8888;DHT22;4480;52.370;9.748;2023-04-29T14:43:41;15.30;61.40
8888;DHT22;4480;52.370;9.748;2023-04-29T14:46:08;15.40;61.30
8888;DHT22;4480;52.370;9.748;2023-04-29T14:48:35;15.50;61.20
8888;DHT22;4480;52.370;9.748;2023-04-29T14:51:03;15.60;60.50
8888;DHT22;4480;52.370;9.748;2023-04-29T14:53:30;15.70;60.20
8888;DHT22;4480;52.370;9.748;2023-04-29T14:55:59;15.80;59.80
8888;DHT22;4480;52.370;9.748;2023-04-29T14:58:25;15.90;59.40
8888;DHT22;4480;52.370;9.748;2023-04-29T15:00:52;16.00;59.00
8888;DHT22;4480;52.370;9.748;2023-04-29T15:03:19;15.90;58.70
8888;DHT22;4480;52.370;9.748;2023-04-29T15:05:46;15.90;58.60
8888;DHT22;4480;52.370;9.748;2023-04-29T15:08:14;15.90;58.60
8888;DHT22;4480;52.370;9.748;2023-04-29T15:10:42;15.90;57.90
8888;DHT22;4480;52.370;9.748;2023-04-29T15:13:10;15.90;57.70
8888;DHT22;4480;52.370;9.748;2023-04-29T15:15:37;16.00;57.40
8888;DHT22;4480;52.370;9.748;2023-04-29T15:18:04;16.00;56.90
8888;DHT22;4480;52.370;9.748;2023-04-29T15:20:33;15.90;56.50
8888;DHT22;4480;52.370;9.748;2023-04-29T15:23:00;15.80;56.40
8888;DHT22;4480;52.370;9.748;2023-04-29T15:25:26;15.70;56.20
8888;DHT22;4480;52.370;9.748;2023-04-29T15:27:53;15.60;56.30
8888;DHT22;4480;52.370;9.748;2023-04-29T15:30:21;15.50;56.60
8888;DHT22;4480;52.370;9.748;2023-04-29T15:32:48;15.50;56.80
8888;DHT22;4480;52.370;9.748;2023-04-29T15:35:15;15.50;56.50
8888;DHT22;4480;52.370;9.748;2023-04-29T15:37:42;15.40;56.20
8888;DHT22;4480;52.370;9.748;2023-04-29T15:40:09;15.30;56.20
8888;DHT22;4480;52.370;9.748;2023-04-29T15:42:36;15.30;56.30
8888;DHT22;4480;52.370;9.748;2023-04-29T15:45:03;15.30;56.40
8888;DHT22;4480;52.370;9.748;2023-04-29T15:47:32;15.30;56.50
8888;DHT22;4480;52.370;9.748;2023-04-29T15:49:59;15.30;56.40
8888;DHT22;4480;52.370;9.748;2023-04-29T15:52:26;15.30;56.40
8888;DHT22;4480;52.370;9.748;2023-04-29T15:54:52;15.30;56.40
8888;DHT22;4480;52.370;9.748;2023-04-29T15:57:19;15.30;56.40
8888;DHT22;4480;52.370;9.748;2023-04-29T15:59:46;15.20;56.10
8888;DHT22;4480;52.370;9.748;2023-04-29T16:02:13;15.10;55.80
8888;DHT22;4480;52.370;9.748;2023-04-29T16:04:41;15.00;55.70
8888;DHT22;4480;52.370;9.748;2023-04-29T16:07:08;14.90;55.90
8888;DHT22;4480;52.370;9.748;2023-04-29T16:09:35;14.90;56.10
8888;DHT22;4480;52.370;9.748;2023-04-29T16:12:01;14.80;56.30